WEATHER DATA

YESTERDAY
Time Temp. Dewp. Hum. Bar.
00:00 22.2 18.2 78 1015.1
00:11 22 18.2 79 1015.1
00:21 21.7 17.9 79 1015.1
00:30 21.6 17.8 79 1015.1
00:41 21.5 17.7 79 1015.2
00:51 21.4 17.6 79 1015.2
01:01 21.4 17.6 79 1015
01:11 21.4 17.6 79 1015.1
01:28 21.1 17.3 79 1015
01:38 21.1 17.3 79 1015
01:48 21 17.2 79 1014.9
01:58 20.8 17 79 1014.9
02:09 20.6 17 80 1014.9
02:18 20.5 16.9 80 1015
02:28 20.6 17 80 1014.9
02:39 20.6 17 80 1014.8
02:59 20.5 16.9 80 1014.6
03:08 20.3 16.7 80 1014.7
03:19 20.1 16.5 80 1014.6
03:29 20 16.6 81 1014.5
03:39 19.9 16.5 81 1014.6
03:49 19.7 16.4 81 1014.5
03:59 19.5 16.2 81 1014.5
04:09 19.4 16.3 82 1014.5
04:19 19.3 16.2 82 1014.5
04:30 19.3 16.2 82 1014.6
04:39 19.3 16.2 82 1014.5
04:49 19.3 16 81 1014.6
05:00 19.3 16 81 1014.6
05:10 19.3 16 81 1014.6
05:20 19.3 16 81 1014.7
05:29 19.2 15.9 81 1014.7
05:40 19.1 15.8 81 1014.7
05:50 19 15.7 81 1014.7
06:00 18.9 15.6 81 1014.8
06:10 18.9 15.8 82 1014.8
06:20 18.8 15.5 81 1014.6
06:30 18.7 15.4 81 1014.7
06:40 18.4 15.1 81 1014.7
06:51 18.3 15 81 1014.8
07:01 18.3 15 81 1014.8
07:10 18.3 15 81 1015
07:21 18.4 15.1 81 1014.9
07:31 18.5 15 80 1015.1
07:41 18.6 15.1 80 1015.1
07:50 18.8 15.3 80 1015
08:01 18.9 15.4 80 1015.1
08:11 19.2 15.7 80 1015.2
08:21 19.7 16 79 1015.2
08:31 20.1 15.9 77 1015.2
08:51 21.1 16.5 75 1015.3
09:01 21.8 17 74 1015.5
09:12 22.4 17.3 73 1015.5
09:22 23 17.7 72 1015.6
09:31 23.4 17.6 70 1015.6
09:42 23.8 17.8 69 1015.5
09:52 24.2 18.2 69 1015.6
10:02 24.6 18.3 68 1015.6
10:12 25 18.2 66 1015.6
10:22 25.4 18.6 66 1015.7
10:32 26.1 18.8 64 1015.7
10:42 26.7 19.1 63 1015.6
10:52 27.4 18.4 58 1015.5
11:02 27.6 18.3 57 1015.5
11:12 28 18.4 56 1015.5
11:22 28.3 18.7 56 1015.4
11:33 28.8 18.9 55 1015.3
11:43 29 18.8 54 1015.2
11:52 29.3 18.7 53 1015.2
12:03 29.6 18.4 51 1015.1
12:13 30 17.8 48 1015.1
12:23 30.1 17.6 47 1015
12:32 30.3 18.1 48 1014.9
12:43 30.3 18.7 50 1014.8
12:53 30.6 19.3 51 1014.7
13:03 30.6 20.2 54 1014.6
13:13 30.4 20.6 56 1014.6
13:23 30 20.6 57 1014.5
13:33 29.7 20.8 59 1014.4
13:43 29.7 20.8 59 1014.3
13:45 29.7 20.8 59 1014.3
14:03 29.6 20.7 59 1014.2
14:14 29.8 20.6 58 1014.2
14:24 29.9 20.7 58 1014.1
14:34 29.8 20.6 58 1014.1
14:43 29.8 20.9 59 1014
15:04 29.8 20.9 59 1013.7
15:14 29.8 20.6 58 1013.6
15:24 29.7 20.3 57 1013.6
15:34 29.6 20.2 57 1013.5
15:44 29.4 20.3 58 1013.4
15:59 29.5 20.4 58 1013.3
16:06 29.4 20.3 58 1013.3
16:20 29.6 19.6 55 1013.3
16:29 29.7 19.4 54 1013.3
16:39 29.5 19.2 54 1013.2
16:50 29.5 19.5 55 1013.1
17:00 29.4 19.1 54 1013
17:10 29.3 19.6 56 1013
17:20 29.1 20.3 59 1012.9
17:30 28.9 20.4 60 1012.8
17:40 28.9 20.6 61 1012.7
18:00 28.5 20.2 61 1012.6
18:10 28.5 20.2 61 1012.5
18:20 28.5 20.2 61 1012.5
18:30 28.3 20.1 61 1012.5
18:41 28 19.8 61 1012.4
18:50 27.7 20 63 1012.3
19:00 27.3 19.9 64 1012.3
19:11 27.1 20 65 1012.3
19:21 26.9 19.8 65 1012.2
19:31 26.6 20 67 1012.2
19:41 26.3 19.7 67 1012.1
19:51 26.2 19.6 67 1012
20:01 26 19.4 67 1012.1
20:11 25.7 19.4 68 1012.2
20:21 25.4 19.3 69 1012.2
20:31 25.2 19.1 69 1012.2
20:41 24.9 19.1 70 1012.1
20:51 24.6 18.8 70 1012.1
21:02 24.3 18.7 71 1012.1
21:11 24 18.4 71 1011.9
21:21 23.7 18.1 71 1011.8
21:32 23.5 18.2 72 1011.7
21:42 23.4 17.8 71 1011.5
21:52 24 16.8 64 1011.3
22:02 25 16.2 58 1011.3
22:12 25.6 15.9 55 1011.2
22:22 26.1 16.1 54 1011.2
22:32 26.2 15.9 53 1010.8
22:42 26.4 15.8 52 1010.7
22:52 26.5 15.5 51 1010.6
22:53 26.5 15.5 51 1010.4
23:12 26.8 15.5 50 1010.3
23:22 26.7 15.7 51 1010.2
23:33 26.5 15.5 51 1010.1
23:42 26.5 15.5 51 1010.1
23:52 26.5 14.9 49 1010

DAY STATISTIC

2018-09-23
TEMPERATURE
AVERAGE
24.6
HIGH
30.6
12:53
LOW
18.3
06:51
PRESSURE
AVERAGE
1013.9
HIGH
1015.7
10:22
LOW
1010.0
23:52
DEWPOINT
AVERAGE
17.9
HIGH
20.9
14:43
LOW
14.9
23:52
HUMIDITY
AVERAGE
67
HIGH
82
04:09
LOW
47
12:23
TEMPERATURE (°C)
LOW
18.3
HIGH
30.6
AVERAGE
24.6
PRESSURE (hpa)
LOW
1010.0
HIGH
1015.7
AVERAGE
1013.9
DEVICE